Time;durP1;ratioP1;P1;durP2;ratioP2;P2;SDS_P1;SDS_P2;PMS_P1;PMS_P2;Temp;Humidity;BMP_temperature;BMP_pressure;BME280_temperature;BME280_humidity;BME280_pressure;Samples;Min_cycle;Max_cycle;Signal;HPM_P1;HPM_P2
2022/10/04 00:02:28;;;;;;;12.18;3.58;;;;;18.70;102184.00;;;;4990948;28;20206;-82
2022/10/04 00:05:02;;;;;;;5.55;3.38;;;;;18.80;102183.00;;;;5006561;28;20208;-81
2022/10/04 00:07:34;;;;;;;4.07;2.83;;;;;18.80;102189.00;;;;5009910;28;20279;-82
2022/10/04 00:10:04;;;;;;;3.75;2.75;;;;;18.80;102179.00;;;;5000207;28;20202;-81
2022/10/04 00:12:37;;;;;;;5.47;2.75;;;;;18.80;102183.00;;;;4995903;28;20571;-82
2022/10/04 00:15:16;;;;;;;3.92;2.55;;;;;18.80;102178.00;;;;5006118;28;20551;-81
2022/10/04 00:17:43;;;;;;;4.45;2.70;;;;;18.80;102176.00;;;;4981728;28;20293;-81
2022/10/04 00:20:57;;;;;;;8.25;3.63;;;;;18.60;102175.00;;;;4991030;28;20212;-81
2022/10/04 00:23:46;;;;;;;4.30;2.80;;;;;18.70;102178.00;;;;4980361;28;20206;-83
2022/10/04 00:26:35;;;;;;;9.02;3.30;;;;;18.70;102174.00;;;;4993027;28;20189;-82
2022/10/04 00:29:33;;;;;;;4.13;2.88;;;;;18.60;102172.00;;;;4980694;28;20216;-81
2022/10/04 00:32:28;;;;;;;3.75;2.85;;;;;18.60;102169.00;;;;4996891;28;20205;-81
2022/10/04 00:34:57;;;;;;;4.43;3.60;;;;;18.70;102167.00;;;;4996490;28;20203;-81
2022/10/04 00:37:26;;;;;;;7.97;3.35;;;;;18.70;102160.00;;;;4990049;28;20205;-81
2022/10/04 00:40:18;;;;;;;4.80;3.17;;;;;18.60;102146.00;;;;4993840;28;20247;-80
2022/10/04 00:42:59;;;;;;;5.05;3.47;;;;;18.60;102146.00;;;;4983344;28;20208;-81
2022/10/04 00:45:33;;;;;;;7.43;3.60;;;;;18.70;102155.00;;;;4998630;28;20207;-80
2022/10/04 00:48:31;;;;;;;7.45;3.85;;;;;18.60;102162.00;;;;4974913;28;20197;-81
2022/10/04 00:51:04;;;;;;;3.60;3.15;;;;;18.70;102154.00;;;;4983592;28;20252;-81
2022/10/04 00:53:45;;;;;;;6.57;3.85;;;;;18.60;102148.00;;;;4986198;28;20223;-80
2022/10/04 00:56:19;;;;;;;5.20;3.78;;;;;18.70;102140.00;;;;5000947;28;20228;-80
2022/10/04 00:59:05;;;;;;;4.47;3.75;;;;;18.70;102137.00;;;;4986868;28;20232;-80
2022/10/04 01:01:34;;;;;;;5.20;3.40;;;;;18.70;102146.00;;;;4982457;28;20199;-81
2022/10/04 01:04:03;;;;;;;5.55;3.47;;;;;18.70;102149.00;;;;4990043;28;20218;-81
2022/10/04 01:06:31;;;;;;;5.85;3.47;;;;;18.70;102146.00;;;;4989581;28;20201;-81
2022/10/04 01:09:04;;;;;;;6.22;3.42;;;;;18.70;102136.00;;;;4985941;28;20193;-80
2022/10/04 01:11:38;;;;;;;6.63;3.63;;;;;18.70;102141.00;;;;4985514;28;21100;-80
2022/10/04 01:14:10;;;;;;;7.97;4.18;;;;;18.70;102138.00;;;;4987725;28;20256;-81
2022/10/04 01:16:38;;;;;;;5.10;3.65;;;;;18.70;102142.00;;;;4990595;28;20209;-80
2022/10/04 01:19:31;;;;;;;4.47;3.75;;;;;18.50;102122.00;;;;4987186;28;20198;-81
2022/10/04 01:22:11;;;;;;;5.68;3.90;;;;;18.60;102125.00;;;;4986500;28;20198;-81
2022/10/04 01:24:41;;;;;;;4.10;3.40;;;;;18.60;102114.00;;;;4988572;28;20201;-81
2022/10/04 01:27:41;;;;;;;4.80;3.47;;;;;18.50;102117.00;;;;4988946;28;20204;-81
2022/10/04 01:30:12;;;;;;;5.97;3.30;;;;;18.60;102110.00;;;;4985930;28;20210;-80
2022/10/04 01:32:40;;;;;;;7.00;3.67;;;;;18.60;102109.00;;;;4979394;28;20656;-80
2022/10/04 01:35:09;;;;;;;6.18;4.20;;;;;18.60;102099.00;;;;4976332;28;20205;-81
2022/10/04 01:37:38;;;;;;;6.75;4.10;;;;;18.60;102092.00;;;;4990416;28;20198;-81
2022/10/04 01:40:09;;;;;;;4.47;3.33;;;;;18.60;102081.00;;;;4988435;28;20198;-81
2022/10/04 01:42:40;;;;;;;5.00;3.92;;;;;18.60;102076.00;;;;4981461;28;20206;-81
2022/10/04 01:45:14;;;;;;;5.43;3.10;;;;;18.50;102072.00;;;;4988057;28;20209;-81
2022/10/04 01:47:48;;;;;;;7.85;3.42;;;;;18.50;102072.00;;;;4988713;28;20202;-81
2022/10/04 01:50:20;;;;;;;5.32;3.83;;;;;18.50;102079.00;;;;4989069;28;20201;-81
2022/10/04 01:52:51;;;;;;;4.05;3.55;;;;;18.50;102084.00;;;;4988298;28;20205;-81
2022/10/04 01:55:24;;;;;;;5.20;4.43;;;;;18.50;102076.00;;;;4989163;28;20194;-81
2022/10/04 01:57:58;;;;;;;4.55;3.63;;;;;18.50;102080.00;;;;4984136;28;20217;-81
2022/10/04 02:00:26;;;;;;;7.53;4.20;;;;;18.50;102074.00;;;;4977300;28;21107;-82
2022/10/04 02:02:57;;;;;;;5.15;4.00;;;;;18.40;102071.00;;;;4989618;28;20568;-82
2022/10/04 02:05:30;;;;;;;6.63;4.30;;;;;18.40;102067.00;;;;4981756;28;20201;-82
2022/10/04 02:08:02;;;;;;;6.82;3.67;;;;;18.40;102068.00;;;;4988591;28;20198;-82
2022/10/04 02:10:35;;;;;;;5.35;4.13;;;;;18.40;102058.00;;;;4983345;28;20202;-82
2022/10/04 02:13:05;;;;;;;6.65;4.40;;;;;18.30;102049.00;;;;4969426;28;20750;-82
2022/10/04 02:15:37;;;;;;;4.60;3.63;;;;;18.30;102044.00;;;;4979971;28;20194;-82
2022/10/04 02:18:05;;;;;;;4.32;3.63;;;;;18.30;102040.00;;;;4974918;28;20214;-82
2022/10/04 02:20:33;;;;;;;5.10;3.80;;;;;18.30;102048.00;;;;4989377;28;20208;-82
2022/10/04 02:23:02;;;;;;;6.72;4.18;;;;;18.20;102030.00;;;;4989428;28;20698;-82
2022/10/04 02:25:31;;;;;;;9.32;4.18;;;;;18.20;102024.00;;;;4985918;28;20288;-82
2022/10/04 02:27:59;;;;;;;4.43;3.80;;;;;18.20;102023.00;;;;4990389;28;20202;-82
2022/10/04 02:30:27;;;;;;;7.25;3.97;;;;;18.20;102012.00;;;;4979918;28;20198;-82
2022/10/04 02:32:59;;;;;;;5.13;3.78;;;;;18.10;102006.00;;;;5001900;28;20201;-82
2022/10/04 02:35:29;;;;;;;5.05;4.55;;;;;18.10;101997.00;;;;4978024;28;20280;-82
2022/10/04 02:38:05;;;;;;;5.05;4.45;;;;;18.00;101990.00;;;;4986858;28;20202;-82
2022/10/04 02:40:40;;;;;;;5.32;4.15;;;;;18.00;101989.00;;;;4987319;28;20200;-81
2022/10/04 02:43:14;;;;;;;4.75;3.88;;;;;18.00;101991.00;;;;4984640;28;20223;-82
2022/10/04 02:45:48;;;;;;;11.23;4.82;;;;;17.90;101982.00;;;;4986075;28;20205;-82
2022/10/04 02:48:35;;;;;;;10.10;4.68;;;;;17.80;101987.00;;;;4987981;28;20202;-82
2022/10/04 02:51:15;;;;;;;7.03;4.30;;;;;17.90;101996.00;;;;4970070;28;20202;-82
2022/10/04 02:53:57;;;;;;;4.47;4.07;;;;;17.80;101993.00;;;;4980331;28;20225;-82
2022/10/04 02:56:26;;;;;;;5.28;4.35;;;;;17.80;101995.00;;;;4972920;28;20206;-82
2022/10/04 02:58:54;;;;;;;4.97;4.20;;;;;17.80;101986.00;;;;4976574;28;20201;-82
2022/10/04 03:01:27;;;;;;;4.25;3.70;;;;;17.70;101987.00;;;;4988108;28;20287;-82
2022/10/04 03:03:56;;;;;;;7.18;4.68;;;;;17.70;101979.00;;;;4988005;28;20200;-82
2022/10/04 03:06:28;;;;;;;4.65;3.85;;;;;17.70;101980.00;;;;4973712;28;20205;-82
2022/10/04 03:08:59;;;;;;;8.02;4.45;;;;;17.70;101975.00;;;;4977163;28;20615;-81
2022/10/04 03:11:33;;;;;;;7.95;5.57;;;;;17.60;101982.00;;;;4988126;28;20201;-81
2022/10/04 03:14:04;;;;;;;4.47;4.07;;;;;17.60;101980.00;;;;4987083;28;20228;-82
2022/10/04 03:16:36;;;;;;;6.78;4.00;;;;;17.60;101960.00;;;;4986778;28;20229;-82
2022/10/04 03:19:05;;;;;;;9.20;4.78;;;;;17.60;101957.00;;;;4987260;28;20337;-82
2022/10/04 03:21:33;;;;;;;6.05;4.70;;;;;17.60;101957.00;;;;4987588;28;20216;-82
2022/10/04 03:24:03;;;;;;;5.50;4.53;;;;;17.50;101954.00;;;;4987229;28;20214;-82
2022/10/04 03:26:36;;;;;;;5.45;4.43;;;;;17.50;101955.00;;;;4988740;28;20207;-82
2022/10/04 03:29:09;;;;;;;4.63;4.15;;;;;17.50;101956.00;;;;4991768;28;20237;-83
2022/10/04 03:31:40;;;;;;;4.75;4.35;;;;;17.50;101942.00;;;;4990897;28;20702;-82
2022/10/04 03:34:15;;;;;;;6.22;5.07;;;;;17.40;101952.00;;;;4979215;28;20256;-82
2022/10/04 03:36:43;;;;;;;5.07;3.95;;;;;17.40;101939.00;;;;4990889;28;20205;-82
2022/10/04 03:39:11;;;;;;;4.63;4.10;;;;;17.40;101931.00;;;;4997330;28;20207;-82
2022/10/04 03:41:41;;;;;;;6.05;4.93;;;;;17.40;101939.00;;;;5003361;28;20209;-82
2022/10/04 03:44:15;;;;;;;5.55;4.38;;;;;17.30;101936.00;;;;4987266;28;20216;-82
2022/10/04 03:46:44;;;;;;;8.07;4.82;;;;;17.40;101937.00;;;;4987897;28;20202;-82
2022/10/04 03:49:16;;;;;;;8.05;5.00;;;;;17.30;101943.00;;;;5001024;28;20568;-82
2022/10/04 03:51:46;;;;;;;6.50;5.40;;;;;17.30;101933.00;;;;4997172;28;20202;-81
2022/10/04 03:54:18;;;;;;;5.82;4.75;;;;;17.30;101935.00;;;;4991958;28;20232;-82
2022/10/04 03:56:47;;;;;;;5.47;4.88;;;;;17.30;101937.00;;;;5001835;28;20201;-82
2022/10/04 03:59:17;;;;;;;6.63;4.40;;;;;17.30;101929.00;;;;4996729;28;20234;-81
2022/10/04 04:01:48;;;;;;;6.35;5.28;;;;;17.20;101929.00;;;;4995083;28;20201;-82
2022/10/04 04:04:23;;;;;;;5.10;4.60;;;;;17.20;101914.00;;;;4999262;28;20582;-82
2022/10/04 04:07:01;;;;;;;7.65;4.22;;;;;17.10;101928.00;;;;5003407;28;20201;-82
2022/10/04 04:09:38;;;;;;;5.57;4.38;;;;;17.10;101927.00;;;;4980324;28;20915;-82
2022/10/04 04:12:13;;;;;;;9.18;5.25;;;;;17.10;101930.00;;;;4990151;28;20217;-81
2022/10/04 04:14:42;;;;;;;8.80;4.95;;;;;17.10;101929.00;;;;4987963;28;20221;-81
2022/10/04 04:17:35;;;;;;;6.68;4.40;;;;;17.00;101920.00;;;;4986297;28;20193;-81
2022/10/04 04:20:06;;;;;;;6.68;4.93;;;;;17.10;101917.00;;;;4985878;28;20198;-81
2022/10/04 04:22:35;;;;;;;7.30;4.97;;;;;17.10;101910.00;;;;4989213;28;20197;-82
2022/10/04 04:25:07;;;;;;;6.20;4.65;;;;;17.00;101907.00;;;;4989264;28;20238;-82
2022/10/04 04:27:39;;;;;;;7.75;5.47;;;;;17.00;101908.00;;;;4989437;28;20202;-82
2022/10/04 04:30:08;;;;;;;5.40;4.85;;;;;17.00;101919.00;;;;4991155;28;20276;-81
2022/10/04 04:32:39;;;;;;;6.45;4.95;;;;;16.90;101910.00;;;;4994468;28;20198;-81
2022/10/04 04:35:20;;;;;;;7.00;4.40;;;;;16.90;101910.00;;;;4998270;28;20639;-81
2022/10/04 04:38:03;;;;;;;5.05;4.20;;;;;16.80;101905.00;;;;5000989;28;20208;-81
2022/10/04 04:40:31;;;;;;;4.97;4.53;;;;;16.90;101907.00;;;;4996057;28;20208;-82
2022/10/04 04:43:02;;;;;;;5.80;4.85;;;;;16.80;101919.00;;;;4985474;28;20300;-82
2022/10/04 04:45:31;;;;;;;5.22;4.60;;;;;16.80;101915.00;;;;4994505;28;20197;-82
2022/10/04 04:48:02;;;;;;;6.78;4.75;;;;;16.80;101919.00;;;;5003158;28;20693;-82
2022/10/04 04:50:34;;;;;;;5.68;5.13;;;;;16.80;101918.00;;;;4999051;28;20200;-81
2022/10/04 04:53:08;;;;;;;5.65;4.65;;;;;16.70;101916.00;;;;4992997;28;20208;-82
2022/10/04 04:55:39;;;;;;;6.93;4.80;;;;;16.70;101915.00;;;;4987901;28;20665;-81
2022/10/04 04:58:14;;;;;;;8.48;5.15;;;;;16.70;101906.00;;;;5002836;28;20205;-82
2022/10/04 05:00:42;;;;;;;5.78;4.68;;;;;16.70;101902.00;;;;5003238;28;20773;-81
2022/10/04 05:03:18;;;;;;;8.23;5.60;;;;;16.60;101900.00;;;;4992932;28;20198;-81
2022/10/04 05:05:47;;;;;;;5.63;4.72;;;;;16.70;101905.00;;;;4987947;28;20197;-81
2022/10/04 05:08:18;;;;;;;8.25;5.80;;;;;16.60;101903.00;;;;4985844;28;20197;-81
2022/10/04 05:10:50;;;;;;;6.93;5.72;;;;;16.60;101901.00;;;;4992859;28;20600;-81
2022/10/04 05:13:19;;;;;;;5.15;4.50;;;;;16.60;101910.00;;;;5002486;28;20642;-81
2022/10/04 05:15:49;;;;;;;6.03;4.70;;;;;16.60;101900.00;;;;4989445;28;20672;-82
2022/10/04 05:18:30;;;;;;;7.30;4.80;;;;;16.50;101901.00;;;;4991527;28;20201;-82
2022/10/04 05:21:03;;;;;;;6.30;5.05;;;;;16.50;101901.00;;;;4990443;28;20249;-82
2022/10/04 05:23:30;;;;;;;6.18;4.68;;;;;16.50;101903.00;;;;4988304;28;20664;-81
2022/10/04 05:26:01;;;;;;;5.78;5.15;;;;;16.50;101909.00;;;;4980770;28;20201;-82
2022/10/04 05:28:30;;;;;;;5.78;5.15;;;;;16.50;101909.00;;;;4989864;28;20501;-81
2022/10/04 05:31:38;;;;;;;5.85;5.07;;;;;16.40;101908.00;;;;4985950;28;20224;-81
2022/10/04 05:34:18;;;;;;;6.18;4.75;;;;;16.40;101910.00;;;;4987635;28;20196;-82
2022/10/04 05:37:05;;;;;;;6.00;5.00;;;;;16.40;101911.00;;;;4991541;28;20193;-81
2022/10/04 05:39:42;;;;;;;7.20;4.60;;;;;16.40;101920.00;;;;4990593;28;20228;-81
2022/10/04 05:42:16;;;;;;;6.35;5.07;;;;;16.40;101910.00;;;;4990151;28;20205;-81
2022/10/04 05:44:51;;;;;;;6.70;5.35;;;;;16.40;101912.00;;;;4999371;28;20201;-80
2022/10/04 05:47:22;;;;;;;6.32;5.10;;;;;16.40;101917.00;;;;4995927;28;20528;-80
2022/10/04 05:49:52;;;;;;;6.93;5.05;;;;;16.40;101917.00;;;;4996876;28;20210;-80
2022/10/04 05:52:29;;;;;;;6.35;5.25;;;;;16.40;101909.00;;;;4987142;28;20212;-80
2022/10/04 05:55:26;;;;;;;10.98;5.22;;;;;16.30;101912.00;;;;4989921;28;20224;-81
2022/10/04 05:58:21;;;;;;;5.47;4.50;;;;;16.30;101916.00;;;;4982318;28;20575;-82
2022/10/04 06:01:09;;;;;;;5.20;4.70;;;;;16.30;101916.00;;;;4988920;28;20707;-81
2022/10/04 06:03:54;;;;;;;8.43;5.28;;;;;16.30;101915.00;;;;4986584;28;20200;-81
2022/10/04 06:06:30;;;;;;;6.85;5.22;;;;;16.40;101921.00;;;;5002984;28;20217;-81
2022/10/04 06:09:10;;;;;;;8.43;5.03;;;;;16.40;101917.00;;;;4997773;28;20682;-81
2022/10/04 06:11:49;;;;;;;6.22;4.65;;;;;16.40;101920.00;;;;4993672;28;20727;-81
2022/10/04 06:14:53;;;;;;;6.97;5.13;;;;;16.30;101915.00;;;;4998747;28;20220;-81
2022/10/04 06:17:39;;;;;;;8.25;5.15;;;;;16.40;101914.00;;;;4975504;28;20197;-81
2022/10/04 06:20:20;;;;;;;6.32;5.20;;;;;16.40;101918.00;;;;4991814;28;20263;-80
2022/10/04 06:22:52;;;;;;;10.48;5.32;;;;;16.50;101922.00;;;;4985922;28;20198;-80
2022/10/04 06:25:26;;;;;;;6.25;5.30;;;;;16.50;101911.00;;;;4999756;28;20201;-81
2022/10/04 06:27:57;;;;;;;6.78;5.00;;;;;16.50;101921.00;;;;4982516;28;20204;-81
2022/10/04 06:30:26;;;;;;;5.15;4.65;;;;;16.50;101911.00;;;;4987869;28;20260;-81
2022/10/04 06:33:20;;;;;;;6.22;5.07;;;;;16.50;101905.00;;;;4989665;28;20201;-81
2022/10/04 06:36:13;;;;;;;7.32;5.70;;;;;16.50;101903.00;;;;5006878;28;20709;-81
2022/10/04 06:39:18;;;;;;;6.97;5.10;;;;;16.50;101900.00;;;;4971902;28;20202;-81
2022/10/04 06:42:10;;;;;;;6.97;4.75;;;;;16.50;101906.00;;;;4993471;28;20201;-81
2022/10/04 06:44:59;;;;;;;6.47;5.03;;;;;16.50;101899.00;;;;5004191;28;20216;-81
2022/10/04 06:47:46;;;;;;;5.78;5.13;;;;;16.50;101904.00;;;;4998849;28;20189;-81
2022/10/04 06:50:24;;;;;;;6.30;5.18;;;;;16.60;101896.00;;;;4977848;28;20711;-81
2022/10/04 06:53:19;;;;;;;6.72;5.40;;;;;16.50;101895.00;;;;4985698;28;20201;-81
2022/10/04 06:56:07;;;;;;;9.27;5.13;;;;;16.60;101901.00;;;;4985729;28;20688;-82
2022/10/04 06:59:09;;;;;;;5.60;4.95;;;;;16.60;101890.00;;;;4983265;28;20189;-82
2022/10/04 07:01:45;;;;;;;6.30;4.90;;;;;16.70;101886.00;;;;4990126;28;20197;-82
2022/10/04 07:04:24;;;;;;;7.57;4.97;;;;;16.70;101878.00;;;;4991449;28;20209;-82
2022/10/04 07:07:33;;;;;;;6.35;5.55;;;;;16.70;101874.00;;;;4994119;28;20204;-82
2022/10/04 07:10:06;;;;;;;5.95;4.57;;;;;16.80;101874.00;;;;4976264;28;20834;-82
2022/10/04 07:12:38;;;;;;;7.75;5.35;;;;;16.90;101870.00;;;;4987402;28;20221;-81
2022/10/04 07:15:17;;;;;;;12.98;5.85;;;;;16.90;101863.00;;;;4996050;28;20217;-80
2022/10/04 07:17:47;;;;;;;7.68;5.80;;;;;17.00;101871.00;;;;4992067;28;20200;-80
2022/10/04 07:20:21;;;;;;;7.25;5.72;;;;;17.00;101883.00;;;;4989894;28;20578;-80
2022/10/04 07:22:57;;;;;;;5.35;4.75;;;;;17.00;101884.00;;;;4975748;28;20206;-80
2022/10/04 07:25:29;;;;;;;7.43;5.43;;;;;17.10;101878.00;;;;4980014;28;20212;-80
2022/10/04 07:30:52;;;;;;;10.82;5.70;;;;;17.30;101880.00;;;;4995186;28;20896;-79
2022/10/04 07:33:23;;;;;;;6.88;5.90;;;;;17.30;101878.00;;;;4995214;28;20216;-79
2022/10/04 07:35:55;;;;;;;7.90;5.75;;;;;17.40;101877.00;;;;4994327;28;20911;-79
2022/10/04 07:38:29;;;;;;;11.57;6.28;;;;;17.50;101881.00;;;;4994216;28;20575;-80
2022/10/04 07:41:10;;;;;;;7.97;5.85;;;;;17.50;101881.00;;;;4993717;28;20213;-80
2022/10/04 07:43:48;;;;;;;8.07;5.25;;;;;17.60;101883.00;;;;4991881;28;20194;-80
2022/10/04 07:46:20;;;;;;;8.25;5.68;;;;;17.70;101877.00;;;;4993615;28;20205;-80
2022/10/04 07:48:48;;;;;;;9.85;6.18;;;;;17.90;101879.00;;;;4992147;28;20668;-80
2022/10/04 07:51:23;;;;;;;8.52;5.72;;;;;17.90;101880.00;;;;5001928;28;20204;-78
2022/10/04 07:53:59;;;;;;;7.85;5.28;;;;;18.00;101886.00;;;;4994327;28;20201;-78
2022/10/04 07:56:34;;;;;;;9.15;5.00;;;;;18.10;101882.00;;;;4991367;28;20235;-80
2022/10/04 07:59:16;;;;;;;7.65;4.85;;;;;18.20;101893.00;;;;4993967;28;20620;-80
2022/10/04 08:01:49;;;;;;;6.35;5.07;;;;;18.30;101901.00;;;;4992866;28;20197;-79
2022/10/04 08:04:36;;;;;;;6.97;5.28;;;;;18.40;101906.00;;;;4989267;28;20197;-78
2022/10/04 08:07:15;;;;;;;9.73;5.25;;;;;18.50;101898.00;;;;4990678;28;20208;-78
2022/10/04 08:09:53;;;;;;;5.57;4.38;;;;;18.60;101895.00;;;;4986656;28;22090;-79
2022/10/04 08:12:25;;;;;;;6.03;4.53;;;;;18.70;101895.00;;;;4988522;28;20714;-78
2022/10/04 08:15:10;;;;;;;7.82;4.70;;;;;18.70;101896.00;;;;4977488;28;20210;-79
2022/10/04 08:17:47;;;;;;;5.70;4.15;;;;;18.80;101906.00;;;;4980643;28;20205;-78
2022/10/04 08:20:32;;;;;;;4.80;3.72;;;;;18.90;101900.00;;;;4983194;28;20193;-79
2022/10/04 08:23:21;;;;;;;6.57;4.47;;;;;19.00;101902.00;;;;4988474;28;20205;-78
2022/10/04 08:26:01;;;;;;;6.93;4.35;;;;;19.10;101903.00;;;;4987273;28;20209;-78
2022/10/04 08:31:34;;;;;;;6.80;4.30;;;;;19.30;101895.00;;;;4985308;28;20232;-78
2022/10/04 08:34:20;;;;;;;8.55;5.70;;;;;19.30;101886.00;;;;4986999;28;20252;-78
2022/10/04 08:37:02;;;;;;;6.65;5.15;;;;;19.40;101883.00;;;;4990584;28;20688;-79
2022/10/04 08:39:50;;;;;;;8.70;4.68;;;;;19.40;101891.00;;;;4988020;28;20201;-78
2022/10/04 08:42:52;;;;;;;7.47;4.65;;;;;19.40;101897.00;;;;4986057;28;20224;-78
2022/10/04 08:45:52;;;;;;;6.72;4.15;;;;;19.50;101894.00;;;;4986545;28;20663;-79
2022/10/04 08:49:01;;;;;;;8.85;3.80;;;;;19.60;101903.00;;;;4989960;28;20197;-79
2022/10/04 08:52:06;;;;;;;6.35;4.28;;;;;19.70;101889.00;;;;4986421;28;20868;-78
2022/10/04 08:55:10;;;;;;;6.60;4.07;;;;;19.80;101889.00;;;;4926295;29;20234;-78
2022/10/04 08:58:05;;;;;;;8.10;5.53;;;;;19.80;101880.00;;;;4984800;28;20201;-79
2022/10/04 09:00:49;;;;;;;7.50;5.10;;;;;20.00;101885.00;;;;4988781;28;20233;-78
2022/10/04 09:03:50;;;;;;;6.60;4.05;;;;;20.00;101894.00;;;;4987243;28;20213;-79
2022/10/04 09:06:36;;;;;;;5.97;4.43;;;;;20.10;101890.00;;;;4987036;28;20212;-79
2022/10/04 09:09:34;;;;;;;7.75;3.75;;;;;20.20;101886.00;;;;4981166;28;20194;-79
2022/10/04 09:12:43;;;;;;;5.75;4.45;;;;;20.40;101885.00;;;;4986449;28;20307;-79
2022/10/04 09:15:36;;;;;;;5.13;3.80;;;;;20.50;101891.00;;;;4984513;28;20201;-78
2022/10/04 09:18:21;;;;;;;5.95;4.20;;;;;20.50;101884.00;;;;4979058;28;20197;-79
2022/10/04 09:20:57;;;;;;;6.95;4.38;;;;;20.60;101887.00;;;;4981554;28;20190;-80
2022/10/04 09:23:48;;;;;;;6.75;4.07;;;;;20.70;101881.00;;;;4985959;28;20590;-80
2022/10/04 09:26:22;;;;;;;8.25;5.22;;;;;20.80;101897.00;;;;4984146;28;20664;-84
2022/10/04 09:29:31;;;;;;;7.13;4.53;;;;;20.90;101890.00;;;;4985890;28;20264;-81
2022/10/04 09:32:19;;;;;;;5.45;4.05;;;;;21.00;101891.00;;;;4985782;28;20533;-81
2022/10/04 09:35:18;;;;;;;4.22;3.38;;;;;21.10;101890.00;;;;4983314;28;20668;-80
2022/10/04 09:38:01;;;;;;;3.65;3.25;;;;;21.20;101886.00;;;;4986049;28;20221;-81
2022/10/04 09:41:02;;;;;;;5.78;3.95;;;;;21.30;101893.00;;;;4987598;28;20572;-80
2022/10/04 09:43:57;;;;;;;6.30;4.07;;;;;21.40;101883.00;;;;4978316;28;20204;-82
2022/10/04 09:47:02;;;;;;;5.60;3.53;;;;;21.50;101886.00;;;;4980192;28;20281;-82
2022/10/04 09:49:53;;;;;;;4.93;4.10;;;;;21.70;101891.00;;;;4985736;28;20228;-81
2022/10/04 09:52:38;;;;;;;5.28;4.20;;;;;21.70;101881.00;;;;4987812;28;20205;-81
2022/10/04 09:55:25;;;;;;;6.57;3.88;;;;;21.80;101880.00;;;;4986516;28;20204;-81
2022/10/04 09:58:21;;;;;;;5.28;3.63;;;;;21.90;101872.00;;;;4985864;28;20206;-80
2022/10/04 10:00:59;;;;;;;4.88;3.63;;;;;22.00;101869.00;;;;4987283;28;20230;-81
2022/10/04 10:03:53;;;;;;;5.90;3.80;;;;;22.10;101865.00;;;;4987626;28;20858;-79
2022/10/04 10:06:58;;;;;;;4.53;3.75;;;;;22.10;101859.00;;;;4983510;28;20200;-80
2022/10/04 10:15:30;;;;;;;5.85;3.70;;;;;22.30;101876.00;;;;4980322;28;20286;-78
2022/10/04 10:18:10;;;;;;;12.65;3.65;;;;;22.20;101873.00;;;;4987185;28;20201;-79
2022/10/04 10:21:11;;;;;;;4.68;2.92;;;;;22.20;101864.00;;;;4983991;28;20216;-79
2022/10/04 10:24:00;;;;;;;4.40;3.10;;;;;22.30;101858.00;;;;4973071;28;20196;-80
2022/10/04 10:26:49;;;;;;;5.05;3.25;;;;;22.30;101871.00;;;;4986001;28;20675;-79
2022/10/04 10:29:51;;;;;;;4.82;2.97;;;;;22.40;101877.00;;;;4976550;28;20264;-79
2022/10/04 10:32:39;;;;;;;4.82;3.30;;;;;22.50;101886.00;;;;4984043;28;20384;-79
2022/10/04 10:35:28;;;;;;;4.00;3.20;;;;;22.60;101886.00;;;;4980143;28;20217;-80
2022/10/04 10:38:39;;;;;;;8.27;3.35;;;;;22.70;101890.00;;;;4989786;28;20418;-80
2022/10/04 10:41:35;;;;;;;4.95;2.60;;;;;22.90;101883.00;;;;4984934;28;20210;-79
2022/10/04 10:44:21;;;;;;;5.50;3.28;;;;;23.00;101865.00;;;;4988024;28;20194;-79
2022/10/04 10:47:00;;;;;;;4.55;3.20;;;;;23.10;101864.00;;;;4985812;28;20205;-79
2022/10/04 10:49:44;;;;;;;5.85;2.95;;;;;23.20;101859.00;;;;4973814;28;20571;-78
2022/10/04 10:52:36;;;;;;;5.10;3.20;;;;;23.30;101860.00;;;;4988928;28;20812;-79
2022/10/04 10:55:28;;;;;;;4.28;3.00;;;;;23.30;101851.00;;;;4984292;28;20201;-79
2022/10/04 10:58:39;;;;;;;3.45;2.58;;;;;23.40;101846.00;;;;4986019;28;20198;-79
2022/10/04 11:01:32;;;;;;;5.97;3.35;;;;;23.50;101844.00;;;;4990376;28;20240;-80
2022/10/04 11:04:18;;;;;;;5.97;3.72;;;;;23.60;101837.00;;;;4987778;28;20198;-79
2022/10/04 11:07:15;;;;;;;5.03;3.47;;;;;23.70;101850.00;;;;5001819;28;22404;-79
2022/10/04 11:10:03;;;;;;;4.32;2.95;;;;;23.80;101839.00;;;;4986336;28;20197;-81
2022/10/04 11:12:53;;;;;;;4.90;3.00;;;;;23.80;101845.00;;;;4993900;28;20218;-81
2022/10/04 11:15:51;;;;;;;4.50;3.25;;;;;23.80;101841.00;;;;4980792;28;20205;-80
2022/10/04 11:18:50;;;;;;;5.97;3.08;;;;;23.80;101845.00;;;;4982058;28;20205;-80
2022/10/04 11:22:05;;;;;;;3.53;2.50;;;;;23.90;101846.00;;;;4985848;28;20679;-80
2022/10/04 11:24:58;;;;;;;4.22;3.00;;;;;24.00;101832.00;;;;4965661;28;20228;-81
2022/10/04 11:27:41;;;;;;;5.78;3.70;;;;;24.10;101832.00;;;;4985518;28;20302;-80
2022/10/04 11:30:23;;;;;;;3.55;2.88;;;;;24.10;101829.00;;;;4986356;28;20722;-80
2022/10/04 11:33:23;;;;;;;4.00;3.22;;;;;24.00;101829.00;;;;4988895;28;20198;-79
2022/10/04 11:36:31;;;;;;;5.13;2.65;;;;;24.00;101826.00;;;;4973036;28;20572;-79
2022/10/04 11:39:11;;;;;;;4.38;2.90;;;;;24.00;101821.00;;;;4974838;28;20206;-80
2022/10/04 11:41:50;;;;;;;4.65;3.25;;;;;24.00;101816.00;;;;4979834;28;20679;-80
2022/10/04 11:44:48;;;;;;;3.63;2.15;;;;;23.80;101823.00;;;;4986940;28;20201;-81
2022/10/04 11:47:32;;;;;;;3.63;2.75;;;;;23.90;101825.00;;;;4990381;28;20613;-80
2022/10/04 11:50:21;;;;;;;6.40;2.50;;;;;23.90;101813.00;;;;4990654;28;20202;-79
2022/10/04 11:53:43;;;;;;;4.78;2.33;;;;;23.80;101820.00;;;;4991956;28;20600;-80
2022/10/04 11:56:36;;;;;;;2.70;2.47;;;;;23.70;101809.00;;;;4974147;28;20771;-80
2022/10/04 11:59:29;;;;;;;3.83;2.40;;;;;23.80;101810.00;;;;4987573;28;20716;-80
2022/10/04 12:02:25;;;;;;;2.78;2.13;;;;;23.70;101816.00;;;;4990646;28;20212;-80
2022/10/04 12:05:17;;;;;;;3.47;2.08;;;;;23.80;101814.00;;;;4952109;28;20208;-80
2022/10/04 12:07:56;;;;;;;3.17;2.65;;;;;23.90;101812.00;;;;4990126;28;20201;-80
2022/10/04 12:10:28;;;;;;;3.92;2.08;;;;;24.00;101811.00;;;;4989116;28;20209;-79
2022/10/04 12:13:26;;;;;;;4.85;3.00;;;;;23.90;101806.00;;;;4990475;28;20221;-79
2022/10/04 12:16:15;;;;;;;5.22;2.40;;;;;24.00;101806.00;;;;4991856;28;20660;-78
2022/10/04 12:19:26;;;;;;;4.40;2.25;;;;;24.00;101806.00;;;;4989375;28;20208;-79
2022/10/04 12:22:09;;;;;;;3.92;2.38;;;;;24.00;101799.00;;;;4985606;28;20208;-79
2022/10/04 12:25:08;;;;;;;5.07;2.45;;;;;24.00;101797.00;;;;4991540;28;20586;-80
2022/10/04 12:28:11;;;;;;;3.67;2.20;;;;;24.00;101787.00;;;;4988865;28;20200;-79
2022/10/04 12:31:12;;;;;;;4.30;2.08;;;;;24.10;101777.00;;;;4951104;28;20208;-80
2022/10/04 12:33:47;;;;;;;5.05;2.20;;;;;24.30;101778.00;;;;4972601;28;20656;-80
2022/10/04 12:36:31;;;;;;;3.03;2.10;;;;;24.30;101781.00;;;;4990403;28;20236;-78
2022/10/04 12:39:24;;;;;;;3.13;2.38;;;;;24.40;101773.00;;;;4985480;28;20202;-80
2022/10/04 12:42:06;;;;;;;4.45;1.90;;;;;24.50;101772.00;;;;4988694;28;20202;-80
2022/10/04 12:44:46;;;;;;;4.90;2.20;;;;;24.60;101774.00;;;;4988681;28;20276;-80
2022/10/04 12:47:48;;;;;;;3.55;2.33;;;;;24.60;101773.00;;;;4980069;28;20198;-80
2022/10/04 12:50:31;;;;;;;2.35;1.85;;;;;24.70;101769.00;;;;4986867;28;20231;-80
2022/10/04 12:53:14;;;;;;;3.90;2.05;;;;;24.80;101763.00;;;;4981705;28;20572;-80
2022/10/04 12:56:01;;;;;;;4.45;1.90;;;;;24.90;101767.00;;;;4988958;28;20228;-80
2022/10/04 12:58:42;;;;;;;3.92;2.03;;;;;25.00;101768.00;;;;4986933;28;20212;-80
2022/10/04 13:01:17;;;;;;;3.03;2.03;;;;;25.10;101761.00;;;;4988699;28;20229;-80
2022/10/04 13:04:11;;;;;;;2.67;1.67;;;;;25.20;101761.00;;;;4975323;28;20227;-80
2022/10/04 13:06:52;;;;;;;3.08;2.05;;;;;25.50;101763.00;;;;4983405;28;20201;-80
2022/10/04 13:09:30;;;;;;;2.92;1.80;;;;;25.80;101755.00;;;;4989376;28;20610;-80
2022/10/04 13:12:09;;;;;;;2.67;1.88;;;;;26.30;101748.00;;;;4993167;28;20217;-80
2022/10/04 13:14:48;;;;;;;4.05;2.22;;;;;27.10;101742.00;;;;4986160;28;20216;-80
2022/10/04 13:17:28;;;;;;;3.25;2.10;;;;;27.80;101754.00;;;;4990026;28;20260;-81
2022/10/04 13:20:13;;;;;;;3.00;1.83;;;;;28.70;101758.00;;;;4983646;28;20197;-80
2022/10/04 13:22:48;;;;;;;5.15;2.20;;;;;29.50;101769.00;;;;4988228;28;20209;-80
2022/10/04 13:25:32;;;;;;;3.72;2.47;;;;;30.00;101759.00;;;;4982800;28;20664;-79
2022/10/04 13:28:05;;;;;;;3.17;1.90;;;;;30.60;101769.00;;;;4973903;28;20217;-79
2022/10/04 13:30:38;;;;;;;3.13;1.90;;;;;31.20;101757.00;;;;4988793;28;20202;-79